マイアミ の空港の天気 - METARとTAF

マイアミ国際空港 ( KMIA / MIA ) - アメリカ フロリダ州マイアミ
飛行場実況気象(Metar)
観測時間10/16 01:53 EDT (10/16 05:53 UTC)
風向・風速東南東 5m/s
視程10km以上
天気現象
全天の4割程度の雲 雲底高度 730m
気温27.8℃
湿度82%
気圧1018.2hPa
METARKMIA 160553Z 11009KT 10SM SCT024 28/24 A3007 RMK AO2 SLP182 T02780244 10289 20272 58007
過去の天気等 Google飛行場航空写真 Wunderground天気予報

過去48時間のMETAR

飛行場予報(TAF)
発表時間: 10/16 01:20 EDT (10/16 05:20 UTC)
予報対象時間: 16日2時 EDT ~ 17日8時 EDT
風向・風速東 5m/s
視程10km以上
全天の4割程度の雲 雲底高度 760m
16日11時 EDT から
風向・風速東 8m/s
視程10km以上
全天の4割程度の雲 雲底高度 760m
16日20時 EDT から
風向・風速東 6m/s
視程10km以上
全天の4割程度の雲 雲底高度 760m
KMIA 160520Z 1606/1712 10009KT P6SM SCT025
FM161500 10015KT P6SM SCT025
FM170000 09011KT P6SM SCT025